Walworth, NY (14568)

1:44 AM EDT on August 05, 2015 (GMT -0400)
Walworth/Huddle | | Change Station
CLOSE
Current Station
Personal Weather Station
Location: Walworth, NY
Elevation: 459 ft
Nearby Weather Stations

Elev 459 ft 43.13 °N, 77.27 °W | Updated 11 minutes ago

Mostly Cloudy
Mostly Cloudy
56.7 °F
Feels Like 56.7 °F
N
0.0
Wind Variable Wind from North
Gusts 0.0 mph

Today
High -- | Low -- °F
--% Chance of Precip.
Yesterday
High -- | Low -- °F
Precip. -- in
6:03 AM 8:26 PM
Waning Gibbous, 70% visible
Pressure 29.94 in
Visibility 10.0 miles
Clouds Scattered Clouds 7000 ft
Overcast 10000 ft
Dew Point 55 °F
Humidity 94%
Rainfall 0.00 in
Snow Depth Not available.
UV 0 out of 12
Pollen 6.80 out of 12
Air Quality Not available.
Flu Activity Not available.
METAR KROC 050454Z 26005KT 10SM SCT070 OVC100 18/16 A2994 RMK AO2 SLP139 T01780161 402560156

More Conditions Fewer Conditions

Pressure 29.94 in
Visibility 10.0 miles
Clouds Scattered Clouds 7000 ft
Overcast 10000 ft
Dew Point 55 °F
Humidity 94%
Rainfall 0.00 in
Snow Depth Not available.
UV 0 out of 12
Pollen 6.80 out of 12
Air Quality Not available.
Flu Activity Not available.
METAR KROC 050454Z 26005KT 10SM SCT070 OVC100 18/16 A2994 RMK AO2 SLP139 T01780161 402560156

More Conditions Fewer Conditions

10-Day Weather Forecast

×

Almanac

Astronomy

Aug. 05, 2015 Rise Set
Actual Time
Civil Twilight
Nautical Twilight
Astronomical Twilight
Moon
Length of Visible Light
Length of Day
Tomorrow will be .
, % of the Moon is Illuminated

Today's Extremes

State Highs State Lows

Community

WunderPhotos

Upload Photos

1,844,098 photos uploaded!

WunderBlogs® & News

Nearby

Air Quality

  Air Quality AQ Index Pollutant
Not available.

Snow Depth

Station Depth Elevation

Earthquake Activity

City Distance Mag. Time & Date
Minimum magnitude displayed is 2.5.

Coastal Water Temperatures

Place Temperature

Stations

Nearby Weather Stations

Station Location Temp. Windchill Dew Point Humidity Wind Precip. Elev Updated Type